sensor_id;sensor_type;location;lat;lon;timestamp;pressure;altitude;pressure_sealevel;temperature;humidity
83557;BME280;73523;55.740;13.276;2024-02-21T00:00:40;100564.81;;;24.35;30.31
83557;BME280;73523;55.740;13.276;2024-02-21T00:03:06;100559.53;;;24.33;30.08
83557;BME280;73523;55.740;13.276;2024-02-21T00:05:32;100556.78;;;24.33;30.17
83557;BME280;73523;55.740;13.276;2024-02-21T00:07:59;100541.78;;;24.29;30.26
83557;BME280;73523;55.740;13.276;2024-02-21T00:10:25;100518.81;;;24.29;30.02
83557;BME280;73523;55.740;13.276;2024-02-21T00:12:50;100524.63;;;24.27;30.18
83557;BME280;73523;55.740;13.276;2024-02-21T00:15:16;100526.59;;;24.27;30.17
83557;BME280;73523;55.740;13.276;2024-02-21T00:17:42;100521.03;;;24.27;30.14
83557;BME280;73523;55.740;13.276;2024-02-21T00:20:08;100508.28;;;24.26;30.17
83557;BME280;73523;55.740;13.276;2024-02-21T00:22:33;100504.69;;;24.25;30.40
83557;BME280;73523;55.740;13.276;2024-02-21T00:24:59;100496.66;;;24.24;30.14
83557;BME280;73523;55.740;13.276;2024-02-21T00:27:24;100495.00;;;24.23;30.42
83557;BME280;73523;55.740;13.276;2024-02-21T00:29:49;100485.84;;;24.22;30.47
83557;BME280;73523;55.740;13.276;2024-02-21T00:32:15;100486.09;;;24.21;30.13
83557;BME280;73523;55.740;13.276;2024-02-21T00:34:41;100473.34;;;24.20;30.45
83557;BME280;73523;55.740;13.276;2024-02-21T00:37:06;100473.06;;;24.16;30.40
83557;BME280;73523;55.740;13.276;2024-02-21T00:39:32;100476.94;;;24.15;30.40
83557;BME280;73523;55.740;13.276;2024-02-21T00:41:57;100462.56;;;24.13;30.51
83557;BME280;73523;55.740;13.276;2024-02-21T00:44:22;100455.63;;;24.11;30.31
83557;BME280;73523;55.740;13.276;2024-02-21T00:46:48;100453.97;;;24.10;30.50
83557;BME280;73523;55.740;13.276;2024-02-21T00:49:13;100453.41;;;24.08;30.56
83557;BME280;73523;55.740;13.276;2024-02-21T00:51:38;100446.47;;;24.05;30.52
83557;BME280;73523;55.740;13.276;2024-02-21T00:54:03;100439.25;;;24.04;30.57
83557;BME280;73523;55.740;13.276;2024-02-21T00:56:29;100432.63;;;24.00;30.30
83557;BME280;73523;55.740;13.276;2024-02-21T00:58:55;100424.59;;;23.98;30.60
83557;BME280;73523;55.740;13.276;2024-02-21T01:01:22;100420.16;;;23.97;30.43
83557;BME280;73523;55.740;13.276;2024-02-21T01:03:48;100415.16;;;23.94;30.54
83557;BME280;73523;55.740;13.276;2024-02-21T01:06:14;100408.81;;;23.94;30.59
83557;BME280;73523;55.740;13.276;2024-02-21T01:08:39;100399.66;;;23.93;30.40
83557;BME280;73523;55.740;13.276;2024-02-21T01:11:04;100388.59;;;23.88;30.50
83557;BME280;73523;55.740;13.276;2024-02-21T01:13:30;100395.81;;;23.89;30.64
83557;BME280;73523;55.740;13.276;2024-02-21T01:15:55;100394.16;;;23.88;30.61
83557;BME280;73523;55.740;13.276;2024-02-21T01:18:20;100382.25;;;23.88;30.50
83557;BME280;73523;55.740;13.276;2024-02-21T01:20:46;100387.22;;;23.86;30.46
83557;BME280;73523;55.740;13.276;2024-02-21T01:23:11;100375.31;;;23.85;30.79
83557;BME280;73523;55.740;13.276;2024-02-21T01:25:36;100370.03;;;23.84;30.79
83557;BME280;73523;55.740;13.276;2024-02-21T01:28:02;100369.75;;;23.80;30.37
83557;BME280;73523;55.740;13.276;2024-02-21T01:30:27;100356.75;;;23.81;30.74
83557;BME280;73523;55.740;13.276;2024-02-21T01:32:53;100353.16;;;23.80;30.76
83557;BME280;73523;55.740;13.276;2024-02-21T01:35:18;100359.00;;;23.79;30.63
83557;BME280;73523;55.740;13.276;2024-02-21T01:37:43;100343.50;;;23.78;30.64
83557;BME280;73523;55.740;13.276;2024-02-21T01:40:09;100339.06;;;23.77;30.61
83557;BME280;73523;55.740;13.276;2024-02-21T01:42:38;100340.44;;;23.74;30.88
83557;BME280;73523;55.740;13.276;2024-02-21T01:45:05;100323.00;;;23.74;30.68
83557;BME280;73523;55.740;13.276;2024-02-21T01:47:30;100327.41;;;23.69;30.77
83557;BME280;73523;55.740;13.276;2024-02-21T01:49:56;100317.72;;;23.72;30.90
83557;BME280;73523;55.740;13.276;2024-02-21T01:52:21;100321.59;;;23.71;30.56
83557;BME280;73523;55.740;13.276;2024-02-21T01:54:47;100313.84;;;23.68;30.96
83557;BME280;73523;55.740;13.276;2024-02-21T01:57:13;100299.19;;;23.67;30.92
83557;BME280;73523;55.740;13.276;2024-02-21T01:59:39;100298.66;;;23.65;30.52
83557;BME280;73523;55.740;13.276;2024-02-21T02:02:05;100299.75;;;23.64;30.85
83557;BME280;73523;55.740;13.276;2024-02-21T02:04:30;100287.84;;;23.64;30.71
83557;BME280;73523;55.740;13.276;2024-02-21T02:06:57;100275.41;;;23.61;30.75
83557;BME280;73523;55.740;13.276;2024-02-21T02:09:25;100269.31;;;23.59;30.81
83557;BME280;73523;55.740;13.276;2024-02-21T02:11:50;100263.47;;;23.56;30.89
83557;BME280;73523;55.740;13.276;2024-02-21T02:14:16;100262.41;;;23.52;30.85
83557;BME280;73523;55.740;13.276;2024-02-21T02:16:41;100256.88;;;23.52;30.75
83557;BME280;73523;55.740;13.276;2024-02-21T02:19:06;100254.63;;;23.49;30.79
83557;BME280;73523;55.740;13.276;2024-02-21T02:21:39;100247.69;;;23.46;30.71
83557;BME280;73523;55.740;13.276;2024-02-21T02:24:06;100240.50;;;23.45;30.87
83557;BME280;73523;55.740;13.276;2024-02-21T02:26:32;100238.31;;;23.42;31.07
83557;BME280;73523;55.740;13.276;2024-02-21T02:28:57;100243.84;;;23.42;31.32
83557;BME280;73523;55.740;13.276;2024-02-21T02:31:22;100229.72;;;23.39;31.13
83557;BME280;73523;55.740;13.276;2024-02-21T02:33:48;100225.00;;;23.39;30.75
83557;BME280;73523;55.740;13.276;2024-02-21T02:36:13;100221.41;;;23.39;30.80
83557;BME280;73523;55.740;13.276;2024-02-21T02:38:39;100222.25;;;23.39;31.02
83557;BME280;73523;55.740;13.276;2024-02-21T02:41:04;100219.47;;;23.39;30.81
83557;BME280;73523;55.740;13.276;2024-02-21T02:43:29;100218.66;;;23.39;31.16
83557;BME280;73523;55.740;13.276;2024-02-21T02:45:55;100216.72;;;23.39;30.99
83557;BME280;73523;55.740;13.276;2024-02-21T02:48:21;100210.63;;;23.37;31.12
83557;BME280;73523;55.740;13.276;2024-02-21T02:50:46;100196.81;;;23.37;30.87
83557;BME280;73523;55.740;13.276;2024-02-21T02:53:11;100196.81;;;23.37;30.92
83557;BME280;73523;55.740;13.276;2024-02-21T02:55:37;100188.78;;;23.35;30.73
83557;BME280;73523;55.740;13.276;2024-02-21T02:58:02;100192.38;;;23.36;30.83
83557;BME280;73523;55.740;13.276;2024-02-21T03:00:28;100178.81;;;23.34;30.87
83557;BME280;73523;55.740;13.276;2024-02-21T03:02:53;100169.69;;;23.34;31.18
83557;BME280;73523;55.740;13.276;2024-02-21T03:05:20;100163.59;;;23.32;31.30
83557;BME280;73523;55.740;13.276;2024-02-21T03:07:47;100159.16;;;23.31;31.08
83557;BME280;73523;55.740;13.276;2024-02-21T03:10:14;100146.19;;;23.26;30.90
83557;BME280;73523;55.740;13.276;2024-02-21T03:12:41;100147.84;;;23.27;31.17
83557;BME280;73523;55.740;13.276;2024-02-21T03:15:07;100144.53;;;23.25;31.11
83557;BME280;73523;55.740;13.276;2024-02-21T03:17:33;100130.97;;;23.24;30.98
83557;BME280;73523;55.740;13.276;2024-02-21T03:20:04;100122.13;;;23.22;31.19
83557;BME280;73523;55.740;13.276;2024-02-21T03:22:31;100119.63;;;23.20;30.90
83557;BME280;73523;55.740;13.276;2024-02-21T03:24:56;100117.16;;;23.19;30.92
83557;BME280;73523;55.740;13.276;2024-02-21T03:27:21;100107.22;;;23.18;30.92
83557;BME280;73523;55.740;13.276;2024-02-21T03:29:47;100106.13;;;23.14;31.28
83557;BME280;73523;55.740;13.276;2024-02-21T03:32:12;100104.19;;;23.14;30.87
83557;BME280;73523;55.740;13.276;2024-02-21T03:34:38;100097.25;;;23.12;31.35
83557;BME280;73523;55.740;13.276;2024-02-21T03:37:03;100102.22;;;23.10;31.35
83557;BME280;73523;55.740;13.276;2024-02-21T03:39:31;100105.00;;;23.10;31.05
83557;BME280;73523;55.740;13.276;2024-02-21T03:41:57;100100.56;;;23.09;31.01
83557;BME280;73523;55.740;13.276;2024-02-21T03:44:23;100103.59;;;23.07;31.31
83557;BME280;73523;55.740;13.276;2024-02-21T03:46:48;100088.44;;;23.05;31.01
83557;BME280;73523;55.740;13.276;2024-02-21T03:49:13;100089.78;;;23.07;31.28
83557;BME280;73523;55.740;13.276;2024-02-21T03:51:39;100085.41;;;23.06;31.25
83557;BME280;73523;55.740;13.276;2024-02-21T03:54:04;100082.63;;;23.06;31.32
83557;BME280;73523;55.740;13.276;2024-02-21T03:56:29;100079.59;;;23.03;31.14
83557;BME280;73523;55.740;13.276;2024-02-21T03:58:55;100089.53;;;23.04;31.38
83557;BME280;73523;55.740;13.276;2024-02-21T04:01:20;100064.94;;;23.02;31.24
83557;BME280;73523;55.740;13.276;2024-02-21T04:03:46;100074.31;;;23.01;31.25
83557;BME280;73523;55.740;13.276;2024-02-21T04:06:11;100063.00;;;22.97;31.10
83557;BME280;73523;55.740;13.276;2024-02-21T04:08:37;100062.72;;;22.99;30.96
83557;BME280;73523;55.740;13.276;2024-02-21T04:11:02;100051.09;;;22.97;30.98
83557;BME280;73523;55.740;13.276;2024-02-21T04:13:28;100047.50;;;22.96;31.10
83557;BME280;73523;55.740;13.276;2024-02-21T04:15:53;100038.38;;;22.96;31.33
83557;BME280;73523;55.740;13.276;2024-02-21T04:18:18;100030.38;;;22.94;31.22
83557;BME280;73523;55.740;13.276;2024-02-21T04:20:44;100021.56;;;22.92;31.19
83557;BME280;73523;55.740;13.276;2024-02-21T04:23:09;100025.41;;;22.91;31.56
83557;BME280;73523;55.740;13.276;2024-02-21T04:25:35;100020.44;;;22.88;31.53
83557;BME280;73523;55.740;13.276;2024-02-21T04:28:00;100030.41;;;22.89;31.09
83557;BME280;73523;55.740;13.276;2024-02-21T04:30:25;100026.25;;;22.87;31.00
83557;BME280;73523;55.740;13.276;2024-02-21T04:32:51;100022.66;;;22.86;31.09
83557;BME280;73523;55.740;13.276;2024-02-21T04:35:16;100023.75;;;22.85;31.14
83557;BME280;73523;55.740;13.276;2024-02-21T04:37:41;100020.16;;;22.85;31.21
83557;BME280;73523;55.740;13.276;2024-02-21T04:40:07;100016.84;;;22.83;31.41
83557;BME280;73523;55.740;13.276;2024-02-21T04:42:33;100024.31;;;22.82;31.46
83557;BME280;73523;55.740;13.276;2024-02-21T04:44:58;100007.19;;;22.80;31.61
83557;BME280;73523;55.740;13.276;2024-02-21T04:47:23;100006.38;;;22.80;31.16
83557;BME280;73523;55.740;13.276;2024-02-21T04:49:50;100003.59;;;22.80;31.28
83557;BME280;73523;55.740;13.276;2024-02-21T04:52:15;100003.88;;;22.78;31.29
83557;BME280;73523;55.740;13.276;2024-02-21T04:54:40;100008.56;;;22.78;31.47
83557;BME280;73523;55.740;13.276;2024-02-21T04:57:06;100000.28;;;22.78;31.19
83557;BME280;73523;55.740;13.276;2024-02-21T04:59:31;99991.16;;;22.77;31.48
83557;BME280;73523;55.740;13.276;2024-02-21T05:01:56;99994.19;;;22.76;31.46
83557;BME280;73523;55.740;13.276;2024-02-21T05:04:21;99989.50;;;22.76;31.74
83557;BME280;73523;55.740;13.276;2024-02-21T05:06:47;99995.53;;;22.73;31.95
83557;BME280;73523;55.740;13.276;2024-02-21T05:09:12;99987.25;;;22.73;31.88
83557;BME280;73523;55.740;13.276;2024-02-21T05:11:38;99981.72;;;22.73;32.26
83557;BME280;73523;55.740;13.276;2024-02-21T05:14:03;99982.56;;;22.74;32.37
83557;BME280;73523;55.740;13.276;2024-02-21T05:16:30;99970.94;;;22.72;34.25
83557;BME280;73523;55.740;13.276;2024-02-21T05:18:55;99949.69;;;22.72;32.74
83557;BME280;73523;55.740;13.276;2024-02-21T05:21:23;99929.25;;;22.73;32.36
83557;BME280;73523;55.740;13.276;2024-02-21T05:23:49;99940.00;;;22.75;32.42
83557;BME280;73523;55.740;13.276;2024-02-21T05:26:20;99940.84;;;22.75;32.26
83557;BME280;73523;55.740;13.276;2024-02-21T05:28:46;99944.47;;;22.76;32.16
83557;BME280;73523;55.740;13.276;2024-02-21T05:31:11;99935.31;;;22.75;32.24
83557;BME280;73523;55.740;13.276;2024-02-21T05:33:37;99925.38;;;22.74;32.14
83557;BME280;73523;55.740;13.276;2024-02-21T05:36:02;99926.47;;;22.73;32.35
83557;BME280;73523;55.740;13.276;2024-02-21T05:38:28;99919.84;;;22.74;32.22
83557;BME280;73523;55.740;13.276;2024-02-21T05:40:54;99932.81;;;22.74;32.14
83557;BME280;73523;55.740;13.276;2024-02-21T05:43:19;99941.13;;;22.74;32.29
83557;BME280;73523;55.740;13.276;2024-02-21T05:45:45;99943.06;;;22.73;32.14
83557;BME280;73523;55.740;13.276;2024-02-21T05:48:10;99946.91;;;22.72;31.99
83557;BME280;73523;55.740;13.276;2024-02-21T05:50:35;99944.97;;;22.73;32.11
83557;BME280;73523;55.740;13.276;2024-02-21T05:53:00;99954.38;;;22.72;32.14
83557;BME280;73523;55.740;13.276;2024-02-21T05:55:26;99962.66;;;22.72;32.20
83557;BME280;73523;55.740;13.276;2024-02-21T05:57:55;99957.13;;;22.72;32.11
83557;BME280;73523;55.740;13.276;2024-02-21T06:00:21;99948.84;;;22.72;32.08
83557;BME280;73523;55.740;13.276;2024-02-21T06:02:46;99942.50;;;22.71;32.23
83557;BME280;73523;55.740;13.276;2024-02-21T06:05:11;99946.41;;;22.70;32.28
83557;BME280;73523;55.740;13.276;2024-02-21T06:07:38;99935.63;;;22.69;32.32
83557;BME280;73523;55.740;13.276;2024-02-21T06:10:03;99939.22;;;22.69;31.88
83557;BME280;73523;55.740;13.276;2024-02-21T06:12:29;99940.03;;;22.70;32.12
83557;BME280;73523;55.740;13.276;2024-02-21T06:14:54;99929.25;;;22.68;32.16
83557;BME280;73523;55.740;13.276;2024-02-21T06:17:20;99952.72;;;22.71;31.74
83557;BME280;73523;55.740;13.276;2024-02-21T06:19:45;99943.63;;;22.70;31.99
83557;BME280;73523;55.740;13.276;2024-02-21T06:22:11;99950.78;;;22.71;31.73
83557;BME280;73523;55.740;13.276;2024-02-21T06:24:37;99940.28;;;22.73;31.92
83557;BME280;73523;55.740;13.276;2024-02-21T06:27:03;99943.88;;;22.74;32.13
83557;BME280;73523;55.740;13.276;2024-02-21T06:29:29;99933.66;;;22.74;31.76
83557;BME280;73523;55.740;13.276;2024-02-21T06:31:54;99941.13;;;22.74;31.84
83557;BME280;73523;55.740;13.276;2024-02-21T06:34:19;99939.47;;;22.73;31.78
83557;BME280;73523;55.740;13.276;2024-02-21T06:36:45;99940.84;;;22.75;31.81
83557;BME280;73523;55.740;13.276;2024-02-21T06:39:10;99944.47;;;22.76;32.01
83557;BME280;73523;55.740;13.276;2024-02-21T06:41:36;99945.28;;;22.76;32.01
83557;BME280;73523;55.740;13.276;2024-02-21T06:44:02;99932.81;;;22.74;31.98
83557;BME280;73523;55.740;13.276;2024-02-21T06:46:28;99951.66;;;22.77;31.70
83557;BME280;73523;55.740;13.276;2024-02-21T06:48:54;99939.78;;;22.76;31.99
83557;BME280;73523;55.740;13.276;2024-02-21T06:51:22;99942.53;;;22.76;31.66
83557;BME280;73523;55.740;13.276;2024-02-21T06:53:48;99939.19;;;22.74;31.81
83557;BME280;73523;55.740;13.276;2024-02-21T06:56:13;99938.94;;;22.76;31.98
83557;BME280;73523;55.740;13.276;2024-02-21T06:58:38;99931.47;;;22.76;31.87
83557;BME280;73523;55.740;13.276;2024-02-21T07:01:04;99930.66;;;22.76;32.04
83557;BME280;73523;55.740;13.276;2024-02-21T07:03:29;99939.50;;;22.78;31.67
83557;BME280;73523;55.740;13.276;2024-02-21T07:05:54;99934.78;;;22.78;31.67
83557;BME280;73523;55.740;13.276;2024-02-21T07:08:19;99934.78;;;22.78;31.60
83557;BME280;73523;55.740;13.276;2024-02-21T07:10:45;99932.88;;;22.79;32.08
83557;BME280;73523;55.740;13.276;2024-02-21T07:13:10;99935.06;;;22.77;31.98
83557;BME280;73523;55.740;13.276;2024-02-21T07:15:35;99933.13;;;22.77;31.74
83557;BME280;73523;55.740;13.276;2024-02-21T07:18:03;99932.88;;;22.79;32.04
83557;BME280;73523;55.740;13.276;2024-02-21T07:20:28;99933.97;;;22.78;32.01
83557;BME280;73523;55.740;13.276;2024-02-21T07:22:54;99930.38;;;22.77;31.76
83557;BME280;73523;55.740;13.276;2024-02-21T07:25:19;99932.31;;;22.77;32.02
83557;BME280;73523;55.740;13.276;2024-02-21T07:27:44;99927.31;;;22.74;31.93
83557;BME280;73523;55.740;13.276;2024-02-21T07:30:10;99941.41;;;22.72;32.20
83557;BME280;73523;55.740;13.276;2024-02-21T07:32:35;99946.09;;;22.72;32.35
83557;BME280;73523;55.740;13.276;2024-02-21T07:35:01;99939.72;;;22.71;32.11
83557;BME280;73523;55.740;13.276;2024-02-21T07:37:26;99949.41;;;22.74;32.04
83557;BME280;73523;55.740;13.276;2024-02-21T07:39:52;99954.41;;;22.77;31.46
83557;BME280;73523;55.740;13.276;2024-02-21T07:42:17;99945.03;;;22.78;31.81
83557;BME280;73523;55.740;13.276;2024-02-21T07:44:42;99940.88;;;22.80;31.80
83557;BME280;73523;55.740;13.276;2024-02-21T07:47:08;99937.53;;;22.83;31.90
83557;BME280;73523;55.740;13.276;2024-02-21T07:49:33;99951.06;;;22.85;31.54
83557;BME280;73523;55.740;13.276;2024-02-21T07:52:05;99943.63;;;22.85;31.63
83557;BME280;73523;55.740;13.276;2024-02-21T07:54:30;99943.06;;;22.88;31.48
83557;BME280;73523;55.740;13.276;2024-02-21T07:56:56;99940.84;;;22.90;31.54
83557;BME280;73523;55.740;13.276;2024-02-21T07:59:21;99938.09;;;22.90;31.58
83557;BME280;73523;55.740;13.276;2024-02-21T08:01:46;99945.00;;;22.93;31.73
83557;BME280;73523;55.740;13.276;2024-02-21T08:04:11;99949.41;;;22.94;31.66
83557;BME280;73523;55.740;13.276;2024-02-21T08:06:37;99941.13;;;22.94;31.70
83557;BME280;73523;55.740;13.276;2024-02-21T08:09:02;99952.19;;;22.94;31.50
83557;BME280;73523;55.740;13.276;2024-02-21T08:11:28;99952.72;;;22.96;31.66
83557;BME280;73523;55.740;13.276;2024-02-21T08:13:53;99965.69;;;22.95;31.57
83557;BME280;73523;55.740;13.276;2024-02-21T08:16:18;99970.13;;;22.96;31.57
83557;BME280;73523;55.740;13.276;2024-02-21T08:18:44;99970.41;;;22.95;31.86
83557;BME280;73523;55.740;13.276;2024-02-21T08:21:09;99972.06;;;22.96;31.85
83557;BME280;73523;55.740;13.276;2024-02-21T08:23:35;99963.47;;;22.97;31.49
83557;BME280;73523;55.740;13.276;2024-02-21T08:26:03;99955.19;;;22.97;31.70
83557;BME280;73523;55.740;13.276;2024-02-21T08:28:29;99956.03;;;22.98;31.77
83557;BME280;73523;55.740;13.276;2024-02-21T08:30:54;99957.13;;;22.97;31.69
83557;BME280;73523;55.740;13.276;2024-02-21T08:33:19;99954.91;;;22.99;31.51
83557;BME280;73523;55.740;13.276;2024-02-21T08:35:49;99957.69;;;22.99;31.67
83557;BME280;73523;55.740;13.276;2024-02-21T08:38:15;99959.63;;;22.98;31.73
83557;BME280;73523;55.740;13.276;2024-02-21T08:40:42;99962.94;;;23.01;31.74
83557;BME280;73523;55.740;13.276;2024-02-21T08:43:07;99957.13;;;23.02;31.40
83557;BME280;73523;55.740;13.276;2024-02-21T08:45:32;99964.59;;;23.02;31.36
83557;BME280;73523;55.740;13.276;2024-02-21T08:47:58;99958.78;;;23.03;31.48
83557;BME280;73523;55.740;13.276;2024-02-21T08:50:23;99955.75;;;23.05;31.24
83557;BME280;73523;55.740;13.276;2024-02-21T08:52:48;99952.72;;;23.06;31.43
83557;BME280;73523;55.740;13.276;2024-02-21T08:55:16;99954.34;;;23.07;31.36
83557;BME280;73523;55.740;13.276;2024-02-21T08:57:42;99963.47;;;23.08;31.21
83557;BME280;73523;55.740;13.276;2024-02-21T09:00:07;99966.22;;;23.08;31.60
83557;BME280;73523;55.740;13.276;2024-02-21T09:02:39;99968.97;;;23.08;31.43
83557;BME280;73523;55.740;13.276;2024-02-21T09:05:05;99973.69;;;23.07;31.42
83557;BME280;73523;55.740;13.276;2024-02-21T09:07:30;99960.16;;;23.06;31.74
83557;BME280;73523;55.740;13.276;2024-02-21T09:09:56;99956.03;;;23.03;31.68
83557;BME280;73523;55.740;13.276;2024-02-21T09:12:21;99949.38;;;23.04;31.58
83557;BME280;73523;55.740;13.276;2024-02-21T09:14:47;99963.22;;;23.04;31.74
83557;BME280;73523;55.740;13.276;2024-02-21T09:17:16;99955.75;;;23.05;31.36
83557;BME280;73523;55.740;13.276;2024-02-21T09:19:42;99957.41;;;23.06;31.71
83557;BME280;73523;55.740;13.276;2024-02-21T09:22:07;99961.00;;;23.06;31.55
83557;BME280;73523;55.740;13.276;2024-02-21T09:24:33;99955.75;;;23.05;31.66
83557;BME280;73523;55.740;13.276;2024-02-21T09:26:58;99959.59;;;23.09;31.33
83557;BME280;73523;55.740;13.276;2024-02-21T09:29:23;99964.00;;;23.10;31.32
83557;BME280;73523;55.740;13.276;2024-02-21T09:31:48;99957.38;;;23.11;31.71
83557;BME280;73523;55.740;13.276;2024-02-21T09:34:14;99963.72;;;23.11;31.63
83557;BME280;73523;55.740;13.276;2024-02-21T09:36:39;99960.13;;;23.11;31.36
83557;BME280;73523;55.740;13.276;2024-02-21T09:39:05;99970.09;;;23.12;31.35
83557;BME280;73523;55.740;13.276;2024-02-21T09:41:31;99970.09;;;23.12;31.27
83557;BME280;73523;55.740;13.276;2024-02-21T09:43:59;99962.06;;;23.10;31.43
83557;BME280;73523;55.740;13.276;2024-02-21T09:49:33;99966.22;;;23.13;31.25
83557;BME280;73523;55.740;13.276;2024-02-21T09:52:02;99971.75;;;23.13;31.26
83557;BME280;73523;55.740;13.276;2024-02-21T09:54:29;99981.44;;;23.15;31.42
83557;BME280;73523;55.740;13.276;2024-02-21T09:56:57;99974.50;;;23.13;31.43
83557;BME280;73523;55.740;13.276;2024-02-21T09:59:23;99979.50;;;23.16;31.35
83557;BME280;73523;55.740;13.276;2024-02-21T10:01:49;99984.44;;;23.19;31.26
83557;BME280;73523;55.740;13.276;2024-02-21T10:04:15;99986.09;;;23.20;31.22
83557;BME280;73523;55.740;13.276;2024-02-21T10:06:41;99984.72;;;23.22;31.05
83557;BME280;73523;55.740;13.276;2024-02-21T10:09:06;99992.72;;;23.24;31.04
83557;BME280;73523;55.740;13.276;2024-02-21T10:11:32;99994.38;;;23.25;31.06
83557;BME280;73523;55.740;13.276;2024-02-21T10:14:04;99993.28;;;23.26;31.38
83557;BME280;73523;55.740;13.276;2024-02-21T10:16:30;99997.69;;;23.27;31.14
83557;BME280;73523;55.740;13.276;2024-02-21T10:18:55;99997.16;;;23.30;31.10
83557;BME280;73523;55.740;13.276;2024-02-21T10:21:20;100007.38;;;23.29;31.35
83557;BME280;73523;55.740;13.276;2024-02-21T10:23:48;99994.66;;;23.28;30.94
83557;BME280;73523;55.740;13.276;2024-02-21T10:26:14;100002.41;;;23.26;31.22
83557;BME280;73523;55.740;13.276;2024-02-21T10:28:40;100012.34;;;23.27;31.13
83557;BME280;73523;55.740;13.276;2024-02-21T10:31:11;100012.63;;;23.26;31.29
83557;BME280;73523;55.740;13.276;2024-02-21T10:33:37;100008.50;;;23.23;31.14
83557;BME280;73523;55.740;13.276;2024-02-21T10:36:09;100006.56;;;23.24;31.51
83557;BME280;73523;55.740;13.276;2024-02-21T10:38:39;100007.38;;;23.24;31.04
83557;BME280;73523;55.740;13.276;2024-02-21T10:41:05;100012.63;;;23.26;31.40
83557;BME280;73523;55.740;13.276;2024-02-21T10:43:38;100008.22;;;23.25;31.37
83557;BME280;73523;55.740;13.276;2024-02-21T10:46:07;100015.94;;;23.28;31.20
83557;BME280;73523;55.740;13.276;2024-02-21T10:48:44;100011.53;;;23.27;31.03
83557;BME280;73523;55.740;13.276;2024-02-21T10:51:19;100009.59;;;23.27;31.22
83557;BME280;73523;55.740;13.276;2024-02-21T10:53:47;100008.50;;;23.28;31.05
83557;BME280;73523;55.740;13.276;2024-02-21T10:58:50;100006.28;;;23.25;31.28
83557;BME280;73523;55.740;13.276;2024-02-21T11:01:17;100012.63;;;23.26;31.28
83557;BME280;73523;55.740;13.276;2024-02-21T11:03:45;100015.94;;;23.28;31.41
83557;BME280;73523;55.740;13.276;2024-02-21T11:06:12;100012.63;;;23.26;31.14
83557;BME280;73523;55.740;13.276;2024-02-21T11:08:38;100012.63;;;23.26;31.10
83557;BME280;73523;55.740;13.276;2024-02-21T11:11:05;100015.94;;;23.28;31.04
83557;BME280;73523;55.740;13.276;2024-02-21T11:13:37;100022.31;;;23.28;31.01
83557;BME280;73523;55.740;13.276;2024-02-21T11:16:21;100017.34;;;23.30;31.27
83557;BME280;73523;55.740;13.276;2024-02-21T11:18:47;100018.69;;;23.33;31.01
83557;BME280;73523;55.740;13.276;2024-02-21T11:21:12;100008.44;;;23.33;31.19
83557;BME280;73523;55.740;13.276;2024-02-21T11:23:37;100012.06;;;23.34;31.18
83557;BME280;73523;55.740;13.276;2024-02-21T11:26:06;100001.53;;;23.36;31.02
83557;BME280;73523;55.740;13.276;2024-02-21T11:28:32;100010.38;;;23.38;30.87
83557;BME280;73523;55.740;13.276;2024-02-21T11:31:13;100006.50;;;23.39;31.12
83557;BME280;73523;55.740;13.276;2024-02-21T11:33:40;100001.81;;;23.40;30.81
83557;BME280;73523;55.740;13.276;2024-02-21T11:36:08;100000.44;;;23.42;30.77
83557;BME280;73523;55.740;13.276;2024-02-21T11:38:33;100007.91;;;23.42;30.93
83557;BME280;73523;55.740;13.276;2024-02-21T11:40:58;100002.66;;;23.40;30.84
83557;BME280;73523;55.740;13.276;2024-02-21T11:43:24;100008.72;;;23.42;31.12
83557;BME280;73523;55.740;13.276;2024-02-21T11:45:50;99998.78;;;23.41;30.95
83557;BME280;73523;55.740;13.276;2024-02-21T11:48:15;99988.53;;;23.42;31.12
83557;BME280;73523;55.740;13.276;2024-02-21T11:50:41;99991.84;;;23.39;30.76
83557;BME280;73523;55.740;13.276;2024-02-21T11:53:06;99988.81;;;23.40;31.20
83557;BME280;73523;55.740;13.276;2024-02-21T11:55:32;99988.81;;;23.40;31.19
83557;BME280;73523;55.740;13.276;2024-02-21T11:57:57;99984.38;;;23.39;30.76
83557;BME280;73523;55.740;13.276;2024-02-21T12:00:23;99976.38;;;23.38;31.20
83557;BME280;73523;55.740;13.276;2024-02-21T12:02:51;99978.84;;;23.39;30.86
83557;BME280;73523;55.740;13.276;2024-02-21T12:05:18;99972.50;;;23.39;31.10
83557;BME280;73523;55.740;13.276;2024-02-21T12:07:45;99979.13;;;23.38;30.90
83557;BME280;73523;55.740;13.276;2024-02-21T12:10:11;99968.91;;;23.38;30.87
83557;BME280;73523;55.740;13.276;2024-02-21T12:12:37;99965.03;;;23.39;30.99
83557;BME280;73523;55.740;13.276;2024-02-21T12:15:04;99965.56;;;23.41;30.92
83557;BME280;73523;55.740;13.276;2024-02-21T12:17:30;99977.47;;;23.42;30.92
83557;BME280;73523;55.740;13.276;2024-02-21T12:19:56;99974.41;;;23.43;30.59
83557;BME280;73523;55.740;13.276;2024-02-21T12:22:22;99972.78;;;23.42;30.79
83557;BME280;73523;55.740;13.276;2024-02-21T12:24:47;99976.88;;;23.45;30.99
83557;BME280;73523;55.740;13.276;2024-02-21T12:27:13;99969.41;;;23.45;30.99
83557;BME280;73523;55.740;13.276;2024-02-21T12:29:38;99978.25;;;23.47;30.81
83557;BME280;73523;55.740;13.276;2024-02-21T12:32:04;99968.31;;;23.46;31.00
83557;BME280;73523;55.740;13.276;2024-02-21T12:34:29;99973.84;;;23.46;30.90
83557;BME280;73523;55.740;13.276;2024-02-21T12:36:58;99981.56;;;23.49;30.52
83557;BME280;73523;55.740;13.276;2024-02-21T12:39:23;99981.34;;;23.51;30.47
83557;BME280;73523;55.740;13.276;2024-02-21T12:41:49;99971.09;;;23.51;30.69
83557;BME280;73523;55.740;13.276;2024-02-21T12:44:14;99981.34;;;23.51;30.87